sensor_id;sensor_type;location;lat;lon;timestamp;P1;durP1;ratioP1;P2;durP2;ratioP2
351;SDS011;164;50.784;6.496;2022-11-25T00:00:36;8.48;;;3.30;;
351;SDS011;164;50.784;6.496;2022-11-25T00:03:03;8.07;;;2.78;;
351;SDS011;164;50.784;6.496;2022-11-25T00:05:30;7.25;;;2.80;;
351;SDS011;164;50.784;6.496;2022-11-25T00:07:57;11.50;;;3.17;;
351;SDS011;164;50.784;6.496;2022-11-25T00:10:25;7.28;;;2.45;;
351;SDS011;164;50.784;6.496;2022-11-25T00:12:52;4.80;;;2.83;;
351;SDS011;164;50.784;6.496;2022-11-25T00:15:21;13.90;;;2.30;;
351;SDS011;164;50.784;6.496;2022-11-25T00:17:48;8.35;;;2.30;;
351;SDS011;164;50.784;6.496;2022-11-25T00:20:15;8.35;;;3.75;;
351;SDS011;164;50.784;6.496;2022-11-25T00:22:44;7.10;;;2.85;;
351;SDS011;164;50.784;6.496;2022-11-25T00:25:12;9.68;;;2.70;;
351;SDS011;164;50.784;6.496;2022-11-25T00:27:39;7.15;;;3.05;;
351;SDS011;164;50.784;6.496;2022-11-25T00:30:07;10.30;;;3.13;;
351;SDS011;164;50.784;6.496;2022-11-25T00:32:36;9.32;;;3.08;;
351;SDS011;164;50.784;6.496;2022-11-25T00:35:03;8.55;;;3.22;;
351;SDS011;164;50.784;6.496;2022-11-25T00:37:31;9.57;;;3.10;;
351;SDS011;164;50.784;6.496;2022-11-25T00:39:58;9.15;;;3.33;;
351;SDS011;164;50.784;6.496;2022-11-25T00:42:25;9.00;;;3.13;;
351;SDS011;164;50.784;6.496;2022-11-25T00:45:10;10.52;;;3.90;;
351;SDS011;164;50.784;6.496;2022-11-25T00:47:39;11.52;;;3.53;;
351;SDS011;164;50.784;6.496;2022-11-25T00:50:06;10.95;;;2.90;;
351;SDS011;164;50.784;6.496;2022-11-25T00:52:34;10.00;;;3.25;;
351;SDS011;164;50.784;6.496;2022-11-25T00:55:01;7.50;;;2.85;;
351;SDS011;164;50.784;6.496;2022-11-25T00:57:28;9.75;;;2.95;;
351;SDS011;164;50.784;6.496;2022-11-25T00:59:55;6.20;;;2.45;;
351;SDS011;164;50.784;6.496;2022-11-25T01:02:23;7.03;;;2.30;;
351;SDS011;164;50.784;6.496;2022-11-25T01:04:51;10.15;;;3.10;;
351;SDS011;164;50.784;6.496;2022-11-25T01:07:19;7.90;;;3.05;;
351;SDS011;164;50.784;6.496;2022-11-25T01:09:46;6.50;;;2.45;;
351;SDS011;164;50.784;6.496;2022-11-25T01:12:14;6.70;;;2.75;;
351;SDS011;164;50.784;6.496;2022-11-25T01:14:42;8.00;;;2.80;;
351;SDS011;164;50.784;6.496;2022-11-25T01:17:09;4.50;;;2.20;;
351;SDS011;164;50.784;6.496;2022-11-25T01:19:36;8.50;;;2.15;;
351;SDS011;164;50.784;6.496;2022-11-25T01:22:06;5.22;;;2.88;;
351;SDS011;164;50.784;6.496;2022-11-25T01:24:34;10.38;;;2.67;;
351;SDS011;164;50.784;6.496;2022-11-25T01:27:01;5.45;;;3.40;;
351;SDS011;164;50.784;6.496;2022-11-25T01:29:29;6.72;;;2.25;;
351;SDS011;164;50.784;6.496;2022-11-25T01:31:56;5.32;;;3.13;;
351;SDS011;164;50.784;6.496;2022-11-25T01:34:24;6.78;;;2.45;;
351;SDS011;164;50.784;6.496;2022-11-25T01:36:52;6.18;;;2.80;;
351;SDS011;164;50.784;6.496;2022-11-25T01:39:21;9.70;;;2.80;;
351;SDS011;164;50.784;6.496;2022-11-25T01:41:48;5.28;;;3.03;;
351;SDS011;164;50.784;6.496;2022-11-25T01:44:16;7.28;;;3.60;;
351;SDS011;164;50.784;6.496;2022-11-25T01:46:45;8.85;;;2.70;;
351;SDS011;164;50.784;6.496;2022-11-25T01:49:14;6.13;;;2.30;;
351;SDS011;164;50.784;6.496;2022-11-25T01:51:44;6.60;;;3.05;;
351;SDS011;164;50.784;6.496;2022-11-25T01:54:14;4.85;;;2.50;;
351;SDS011;164;50.784;6.496;2022-11-25T01:56:45;5.78;;;2.65;;
351;SDS011;164;50.784;6.496;2022-11-25T01:59:13;6.63;;;2.65;;
351;SDS011;164;50.784;6.496;2022-11-25T02:01:41;7.57;;;3.00;;
351;SDS011;164;50.784;6.496;2022-11-25T02:04:08;6.75;;;3.28;;
351;SDS011;164;50.784;6.496;2022-11-25T02:06:38;8.73;;;3.30;;
351;SDS011;164;50.784;6.496;2022-11-25T02:09:07;5.32;;;2.55;;
351;SDS011;164;50.784;6.496;2022-11-25T02:11:35;4.70;;;3.10;;
351;SDS011;164;50.784;6.496;2022-11-25T02:14:05;5.57;;;2.70;;
351;SDS011;164;50.784;6.496;2022-11-25T02:16:33;7.55;;;2.85;;
351;SDS011;164;50.784;6.496;2022-11-25T02:19:00;9.35;;;3.35;;
351;SDS011;164;50.784;6.496;2022-11-25T02:21:29;7.03;;;2.42;;
351;SDS011;164;50.784;6.496;2022-11-25T02:23:58;6.57;;;2.95;;
351;SDS011;164;50.784;6.496;2022-11-25T02:26:29;9.48;;;3.20;;
351;SDS011;164;50.784;6.496;2022-11-25T02:28:56;6.68;;;2.75;;
351;SDS011;164;50.784;6.496;2022-11-25T02:31:24;7.05;;;2.80;;
351;SDS011;164;50.784;6.496;2022-11-25T02:33:51;5.13;;;2.60;;
351;SDS011;164;50.784;6.496;2022-11-25T02:36:19;5.90;;;3.00;;
351;SDS011;164;50.784;6.496;2022-11-25T02:38:48;11.75;;;3.90;;
351;SDS011;164;50.784;6.496;2022-11-25T02:41:16;6.60;;;2.53;;
351;SDS011;164;50.784;6.496;2022-11-25T02:43:45;6.63;;;3.08;;
351;SDS011;164;50.784;6.496;2022-11-25T02:46:13;8.85;;;3.25;;
351;SDS011;164;50.784;6.496;2022-11-25T02:48:41;6.10;;;3.03;;
351;SDS011;164;50.784;6.496;2022-11-25T02:51:10;6.30;;;2.70;;
351;SDS011;164;50.784;6.496;2022-11-25T02:53:38;6.07;;;3.08;;
351;SDS011;164;50.784;6.496;2022-11-25T02:56:06;5.13;;;2.63;;
351;SDS011;164;50.784;6.496;2022-11-25T02:58:36;5.78;;;2.60;;
351;SDS011;164;50.784;6.496;2022-11-25T03:01:05;4.50;;;2.67;;
351;SDS011;164;50.784;6.496;2022-11-25T03:03:33;6.20;;;2.70;;
351;SDS011;164;50.784;6.496;2022-11-25T03:06:00;8.35;;;3.90;;
351;SDS011;164;50.784;6.496;2022-11-25T03:08:27;7.97;;;3.42;;
351;SDS011;164;50.784;6.496;2022-11-25T03:10:55;7.00;;;2.75;;
351;SDS011;164;50.784;6.496;2022-11-25T03:13:22;4.80;;;2.55;;
351;SDS011;164;50.784;6.496;2022-11-25T03:15:49;5.32;;;2.50;;
351;SDS011;164;50.784;6.496;2022-11-25T03:18:18;9.23;;;2.95;;
351;SDS011;164;50.784;6.496;2022-11-25T03:20:45;6.85;;;2.97;;
351;SDS011;164;50.784;6.496;2022-11-25T03:23:12;4.97;;;2.17;;
351;SDS011;164;50.784;6.496;2022-11-25T03:25:40;6.93;;;2.60;;
351;SDS011;164;50.784;6.496;2022-11-25T03:28:07;6.72;;;2.20;;
351;SDS011;164;50.784;6.496;2022-11-25T03:30:34;4.88;;;2.40;;
351;SDS011;164;50.784;6.496;2022-11-25T03:33:02;5.28;;;2.17;;
351;SDS011;164;50.784;6.496;2022-11-25T03:35:30;9.30;;;3.00;;
351;SDS011;164;50.784;6.496;2022-11-25T03:37:58;4.50;;;2.40;;
351;SDS011;164;50.784;6.496;2022-11-25T03:40:25;8.82;;;2.67;;
351;SDS011;164;50.784;6.496;2022-11-25T03:42:52;5.40;;;2.60;;
351;SDS011;164;50.784;6.496;2022-11-25T03:45:20;9.68;;;3.55;;
351;SDS011;164;50.784;6.496;2022-11-25T03:47:47;5.88;;;3.25;;
351;SDS011;164;50.784;6.496;2022-11-25T03:50:14;4.32;;;2.50;;
351;SDS011;164;50.784;6.496;2022-11-25T03:52:43;5.32;;;2.53;;
351;SDS011;164;50.784;6.496;2022-11-25T03:55:10;5.32;;;2.63;;
351;SDS011;164;50.784;6.496;2022-11-25T03:57:38;5.70;;;2.60;;
351;SDS011;164;50.784;6.496;2022-11-25T04:00:05;5.32;;;2.45;;
351;SDS011;164;50.784;6.496;2022-11-25T04:02:33;6.82;;;2.85;;
351;SDS011;164;50.784;6.496;2022-11-25T04:05:01;8.20;;;2.83;;
351;SDS011;164;50.784;6.496;2022-11-25T04:07:29;6.75;;;3.13;;
351;SDS011;164;50.784;6.496;2022-11-25T04:09:58;6.00;;;2.88;;
351;SDS011;164;50.784;6.496;2022-11-25T04:12:25;8.32;;;3.75;;
351;SDS011;164;50.784;6.496;2022-11-25T04:15:10;10.68;;;3.90;;
351;SDS011;164;50.784;6.496;2022-11-25T04:17:37;8.68;;;4.05;;
351;SDS011;164;50.784;6.496;2022-11-25T04:20:05;12.00;;;4.32;;
351;SDS011;164;50.784;6.496;2022-11-25T04:22:32;6.20;;;3.90;;
351;SDS011;164;50.784;6.496;2022-11-25T04:25:01;7.07;;;3.63;;
351;SDS011;164;50.784;6.496;2022-11-25T04:27:28;8.10;;;3.28;;
351;SDS011;164;50.784;6.496;2022-11-25T04:29:55;4.53;;;2.03;;
351;SDS011;164;50.784;6.496;2022-11-25T04:32:23;5.90;;;2.40;;
351;SDS011;164;50.784;6.496;2022-11-25T04:34:50;8.85;;;3.17;;
351;SDS011;164;50.784;6.496;2022-11-25T04:37:18;10.50;;;3.00;;
351;SDS011;164;50.784;6.496;2022-11-25T04:39:45;6.60;;;2.92;;
351;SDS011;164;50.784;6.496;2022-11-25T04:42:14;5.75;;;2.63;;
351;SDS011;164;50.784;6.496;2022-11-25T04:44:56;8.90;;;2.83;;
351;SDS011;164;50.784;6.496;2022-11-25T04:47:24;6.57;;;2.67;;
351;SDS011;164;50.784;6.496;2022-11-25T04:55:28;5.82;;;3.08;;
351;SDS011;164;50.784;6.496;2022-11-25T04:57:57;11.20;;;3.63;;
351;SDS011;164;50.784;6.496;2022-11-25T05:00:24;10.10;;;3.35;;
351;SDS011;164;50.784;6.496;2022-11-25T05:02:51;7.00;;;3.03;;
351;SDS011;164;50.784;6.496;2022-11-25T05:05:18;7.18;;;3.97;;
351;SDS011;164;50.784;6.496;2022-11-25T05:07:45;8.27;;;4.05;;
351;SDS011;164;50.784;6.496;2022-11-25T05:10:13;9.02;;;4.57;;
351;SDS011;164;50.784;6.496;2022-11-25T05:12:40;7.72;;;3.80;;
351;SDS011;164;50.784;6.496;2022-11-25T05:15:09;6.05;;;3.20;;
351;SDS011;164;50.784;6.496;2022-11-25T05:17:37;4.93;;;2.58;;
351;SDS011;164;50.784;6.496;2022-11-25T05:20:05;6.13;;;2.38;;
351;SDS011;164;50.784;6.496;2022-11-25T05:22:33;5.20;;;2.40;;
351;SDS011;164;50.784;6.496;2022-11-25T05:25:01;4.72;;;2.17;;
351;SDS011;164;50.784;6.496;2022-11-25T05:27:29;5.63;;;2.72;;
351;SDS011;164;50.784;6.496;2022-11-25T05:29:56;4.80;;;2.40;;
351;SDS011;164;50.784;6.496;2022-11-25T05:32:25;4.65;;;2.38;;
351;SDS011;164;50.784;6.496;2022-11-25T05:34:53;3.38;;;2.35;;
351;SDS011;164;50.784;6.496;2022-11-25T05:37:20;4.00;;;2.90;;
351;SDS011;164;50.784;6.496;2022-11-25T05:39:47;2.80;;;2.20;;
351;SDS011;164;50.784;6.496;2022-11-25T05:42:14;5.78;;;2.83;;
351;SDS011;164;50.784;6.496;2022-11-25T05:44:42;4.63;;;2.65;;
351;SDS011;164;50.784;6.496;2022-11-25T05:47:09;2.70;;;2.03;;
351;SDS011;164;50.784;6.496;2022-11-25T05:49:37;6.30;;;2.95;;
351;SDS011;164;50.784;6.496;2022-11-25T05:52:05;3.55;;;2.58;;
351;SDS011;164;50.784;6.496;2022-11-25T05:54:32;3.60;;;2.53;;
351;SDS011;164;50.784;6.496;2022-11-25T05:56:59;5.00;;;1.95;;
351;SDS011;164;50.784;6.496;2022-11-25T05:59:26;4.20;;;2.88;;
351;SDS011;164;50.784;6.496;2022-11-25T06:01:54;2.60;;;2.42;;
351;SDS011;164;50.784;6.496;2022-11-25T06:04:21;3.55;;;2.33;;
351;SDS011;164;50.784;6.496;2022-11-25T06:06:50;4.85;;;2.65;;
351;SDS011;164;50.784;6.496;2022-11-25T06:09:17;4.57;;;2.28;;
351;SDS011;164;50.784;6.496;2022-11-25T06:11:44;5.95;;;2.92;;
351;SDS011;164;50.784;6.496;2022-11-25T06:14:12;3.22;;;2.40;;
351;SDS011;164;50.784;6.496;2022-11-25T06:16:39;2.92;;;2.67;;
351;SDS011;164;50.784;6.496;2022-11-25T06:19:07;4.68;;;2.70;;
351;SDS011;164;50.784;6.496;2022-11-25T06:21:34;4.25;;;3.20;;
351;SDS011;164;50.784;6.496;2022-11-25T06:24:03;6.45;;;3.70;;
351;SDS011;164;50.784;6.496;2022-11-25T06:26:31;7.15;;;3.67;;
351;SDS011;164;50.784;6.496;2022-11-25T06:28:58;4.30;;;3.83;;
351;SDS011;164;50.784;6.496;2022-11-25T06:31:26;5.00;;;4.70;;
351;SDS011;164;50.784;6.496;2022-11-25T06:33:53;8.50;;;5.45;;
351;SDS011;164;50.784;6.496;2022-11-25T06:36:20;7.38;;;5.40;;
351;SDS011;164;50.784;6.496;2022-11-25T06:38:48;8.07;;;5.90;;
351;SDS011;164;50.784;6.496;2022-11-25T06:41:17;6.18;;;5.25;;
351;SDS011;164;50.784;6.496;2022-11-25T06:43:45;10.10;;;5.70;;
351;SDS011;164;50.784;6.496;2022-11-25T06:46:13;5.05;;;3.95;;
351;SDS011;164;50.784;6.496;2022-11-25T06:48:41;3.53;;;3.10;;
351;SDS011;164;50.784;6.496;2022-11-25T06:51:10;5.20;;;2.97;;
351;SDS011;164;50.784;6.496;2022-11-25T06:53:38;4.95;;;2.78;;
351;SDS011;164;50.784;6.496;2022-11-25T06:56:07;4.15;;;2.90;;
351;SDS011;164;50.784;6.496;2022-11-25T06:58:36;2.92;;;2.42;;
351;SDS011;164;50.784;6.496;2022-11-25T07:01:04;3.70;;;3.05;;
351;SDS011;164;50.784;6.496;2022-11-25T07:03:32;6.32;;;2.83;;
351;SDS011;164;50.784;6.496;2022-11-25T07:05:59;2.53;;;2.33;;
351;SDS011;164;50.784;6.496;2022-11-25T07:08:27;2.83;;;2.15;;
351;SDS011;164;50.784;6.496;2022-11-25T07:10:54;5.35;;;2.30;;
351;SDS011;164;50.784;6.496;2022-11-25T07:13:21;3.83;;;2.85;;
351;SDS011;164;50.784;6.496;2022-11-25T07:15:50;3.78;;;2.30;;
351;SDS011;164;50.784;6.496;2022-11-25T07:18:18;2.65;;;2.45;;
351;SDS011;164;50.784;6.496;2022-11-25T07:20:45;4.40;;;2.95;;
351;SDS011;164;50.784;6.496;2022-11-25T07:23:12;4.70;;;3.20;;
351;SDS011;164;50.784;6.496;2022-11-25T07:25:40;5.75;;;3.25;;
351;SDS011;164;50.784;6.496;2022-11-25T07:28:07;3.58;;;2.97;;
351;SDS011;164;50.784;6.496;2022-11-25T07:30:34;6.80;;;2.75;;
351;SDS011;164;50.784;6.496;2022-11-25T07:33:03;5.28;;;2.42;;
351;SDS011;164;50.784;6.496;2022-11-25T07:35:30;7.68;;;2.63;;
351;SDS011;164;50.784;6.496;2022-11-25T07:37:57;5.13;;;2.20;;
351;SDS011;164;50.784;6.496;2022-11-25T07:40:25;3.20;;;2.60;;
351;SDS011;164;50.784;6.496;2022-11-25T07:42:53;5.43;;;2.50;;
351;SDS011;164;50.784;6.496;2022-11-25T07:45:20;5.45;;;1.85;;
351;SDS011;164;50.784;6.496;2022-11-25T07:47:48;5.38;;;2.58;;
351;SDS011;164;50.784;6.496;2022-11-25T07:50:17;3.88;;;2.00;;
351;SDS011;164;50.784;6.496;2022-11-25T07:52:45;5.15;;;2.83;;
351;SDS011;164;50.784;6.496;2022-11-25T07:55:12;4.85;;;2.65;;
351;SDS011;164;50.784;6.496;2022-11-25T07:57:40;6.15;;;2.42;;
351;SDS011;164;50.784;6.496;2022-11-25T08:00:07;7.45;;;2.63;;
351;SDS011;164;50.784;6.496;2022-11-25T08:02:35;4.38;;;2.75;;
351;SDS011;164;50.784;6.496;2022-11-25T08:05:02;10.90;;;3.90;;
351;SDS011;164;50.784;6.496;2022-11-25T08:07:31;8.82;;;3.60;;
351;SDS011;164;50.784;6.496;2022-11-25T08:09:59;7.38;;;3.40;;
351;SDS011;164;50.784;6.496;2022-11-25T08:12:26;7.65;;;3.50;;
351;SDS011;164;50.784;6.496;2022-11-25T08:14:53;10.25;;;3.95;;
351;SDS011;164;50.784;6.496;2022-11-25T08:17:20;9.85;;;4.72;;
351;SDS011;164;50.784;6.496;2022-11-25T08:19:48;11.23;;;5.07;;
351;SDS011;164;50.784;6.496;2022-11-25T08:22:15;7.93;;;4.05;;
351;SDS011;164;50.784;6.496;2022-11-25T08:24:43;7.82;;;4.28;;
351;SDS011;164;50.784;6.496;2022-11-25T08:27:11;10.70;;;4.22;;
351;SDS011;164;50.784;6.496;2022-11-25T08:29:38;6.22;;;3.55;;
351;SDS011;164;50.784;6.496;2022-11-25T08:32:06;9.02;;;3.60;;
351;SDS011;164;50.784;6.496;2022-11-25T08:34:33;8.23;;;3.42;;
351;SDS011;164;50.784;6.496;2022-11-25T08:37:01;11.00;;;3.58;;
351;SDS011;164;50.784;6.496;2022-11-25T08:39:28;9.25;;;3.50;;
351;SDS011;164;50.784;6.496;2022-11-25T08:41:57;8.93;;;3.90;;
351;SDS011;164;50.784;6.496;2022-11-25T08:44:24;5.20;;;2.90;;
351;SDS011;164;50.784;6.496;2022-11-25T08:46:55;8.50;;;3.20;;
351;SDS011;164;50.784;6.496;2022-11-25T08:49:22;5.63;;;3.50;;
351;SDS011;164;50.784;6.496;2022-11-25T08:51:51;8.80;;;2.92;;
351;SDS011;164;50.784;6.496;2022-11-25T08:54:18;6.45;;;2.40;;
351;SDS011;164;50.784;6.496;2022-11-25T08:56:45;4.72;;;3.00;;
351;SDS011;164;50.784;6.496;2022-11-25T08:59:14;5.72;;;2.97;;
351;SDS011;164;50.784;6.496;2022-11-25T09:01:41;3.30;;;2.42;;
351;SDS011;164;50.784;6.496;2022-11-25T09:04:09;6.32;;;2.33;;
351;SDS011;164;50.784;6.496;2022-11-25T09:06:37;4.25;;;2.60;;
351;SDS011;164;50.784;6.496;2022-11-25T09:09:04;12.20;;;3.58;;
351;SDS011;164;50.784;6.496;2022-11-25T09:11:31;6.15;;;3.58;;
351;SDS011;164;50.784;6.496;2022-11-25T09:13:59;6.28;;;2.83;;
351;SDS011;164;50.784;6.496;2022-11-25T09:16:27;8.27;;;3.08;;
351;SDS011;164;50.784;6.496;2022-11-25T09:18:54;9.57;;;3.03;;
351;SDS011;164;50.784;6.496;2022-11-25T09:21:24;5.25;;;1.85;;
351;SDS011;164;50.784;6.496;2022-11-25T09:23:51;10.27;;;3.58;;
351;SDS011;164;50.784;6.496;2022-11-25T09:26:20;7.63;;;3.08;;
351;SDS011;164;50.784;6.496;2022-11-25T09:28:48;2.53;;;1.88;;
351;SDS011;164;50.784;6.496;2022-11-25T09:31:16;6.40;;;2.10;;
351;SDS011;164;50.784;6.496;2022-11-25T09:33:44;8.05;;;2.40;;
351;SDS011;164;50.784;6.496;2022-11-25T09:36:13;7.32;;;1.65;;
351;SDS011;164;50.784;6.496;2022-11-25T09:38:40;8.75;;;3.20;;
351;SDS011;164;50.784;6.496;2022-11-25T09:41:13;9.05;;;2.40;;
351;SDS011;164;50.784;6.496;2022-11-25T09:44:05;7.57;;;2.80;;
351;SDS011;164;50.784;6.496;2022-11-25T09:47:06;7.63;;;2.88;;
351;SDS011;164;50.784;6.496;2022-11-25T09:49:40;10.35;;;2.60;;
351;SDS011;164;50.784;6.496;2022-11-25T09:52:12;7.50;;;2.92;;
351;SDS011;164;50.784;6.496;2022-11-25T09:54:43;5.10;;;2.33;;
351;SDS011;164;50.784;6.496;2022-11-25T09:57:19;8.43;;;2.45;;
351;SDS011;164;50.784;6.496;2022-11-25T09:59:51;8.48;;;2.60;;
351;SDS011;164;50.784;6.496;2022-11-25T10:02:21;8.50;;;3.10;;
351;SDS011;164;50.784;6.496;2022-11-25T10:04:53;6.40;;;2.60;;
351;SDS011;164;50.784;6.496;2022-11-25T10:07:24;4.90;;;2.63;;
351;SDS011;164;50.784;6.496;2022-11-25T10:09:54;6.03;;;2.40;;
351;SDS011;164;50.784;6.496;2022-11-25T10:12:23;5.13;;;2.25;;
351;SDS011;164;50.784;6.496;2022-11-25T10:14:52;5.80;;;2.10;;
351;SDS011;164;50.784;6.496;2022-11-25T10:17:23;6.05;;;2.70;;
351;SDS011;164;50.784;6.496;2022-11-25T10:19:58;5.90;;;2.63;;
351;SDS011;164;50.784;6.496;2022-11-25T10:22:27;4.45;;;2.00;;
351;SDS011;164;50.784;6.496;2022-11-25T10:24:56;6.85;;;2.38;;
351;SDS011;164;50.784;6.496;2022-11-25T10:27:26;6.10;;;2.55;;
351;SDS011;164;50.784;6.496;2022-11-25T10:29:58;3.70;;;2.35;;
351;SDS011;164;50.784;6.496;2022-11-25T10:32:28;11.00;;;3.10;;
351;SDS011;164;50.784;6.496;2022-11-25T10:34:59;9.20;;;3.10;;
351;SDS011;164;50.784;6.496;2022-11-25T10:37:27;9.40;;;2.90;;
351;SDS011;164;50.784;6.496;2022-11-25T10:39:55;12.50;;;2.85;;
351;SDS011;164;50.784;6.496;2022-11-25T10:42:24;12.40;;;3.50;;
351;SDS011;164;50.784;6.496;2022-11-25T10:44:52;10.23;;;3.97;;
351;SDS011;164;50.784;6.496;2022-11-25T10:47:26;10.10;;;3.83;;
351;SDS011;164;50.784;6.496;2022-11-25T10:50:06;14.27;;;3.90;;
351;SDS011;164;50.784;6.496;2022-11-25T10:52:38;7.32;;;3.00;;
351;SDS011;164;50.784;6.496;2022-11-25T10:55:07;7.40;;;2.67;;
351;SDS011;164;50.784;6.496;2022-11-25T10:57:36;8.02;;;3.03;;
351;SDS011;164;50.784;6.496;2022-11-25T11:00:03;8.07;;;3.13;;
351;SDS011;164;50.784;6.496;2022-11-25T11:02:36;12.13;;;3.20;;
351;SDS011;164;50.784;6.496;2022-11-25T11:05:15;8.13;;;2.70;;
351;SDS011;164;50.784;6.496;2022-11-25T11:07:44;9.20;;;2.72;;
351;SDS011;164;50.784;6.496;2022-11-25T11:10:24;8.82;;;3.33;;
351;SDS011;164;50.784;6.496;2022-11-25T11:12:55;11.82;;;3.17;;
351;SDS011;164;50.784;6.496;2022-11-25T11:15:24;8.10;;;3.20;;
351;SDS011;164;50.784;6.496;2022-11-25T11:17:53;10.13;;;3.05;;
351;SDS011;164;50.784;6.496;2022-11-25T11:20:22;8.20;;;3.00;;
351;SDS011;164;50.784;6.496;2022-11-25T11:22:54;11.43;;;2.90;;
351;SDS011;164;50.784;6.496;2022-11-25T11:25:29;9.18;;;3.58;;
351;SDS011;164;50.784;6.496;2022-11-25T11:27:57;7.45;;;2.55;;
351;SDS011;164;50.784;6.496;2022-11-25T11:30:25;6.60;;;2.92;;
351;SDS011;164;50.784;6.496;2022-11-25T11:32:55;9.07;;;2.75;;
351;SDS011;164;50.784;6.496;2022-11-25T11:35:26;9.50;;;3.75;;
351;SDS011;164;50.784;6.496;2022-11-25T11:37:56;4.97;;;2.47;;
351;SDS011;164;50.784;6.496;2022-11-25T11:40:34;8.90;;;3.22;;
351;SDS011;164;50.784;6.496;2022-11-25T11:43:07;8.43;;;3.42;;
351;SDS011;164;50.784;6.496;2022-11-25T11:45:39;11.77;;;3.85;;
351;SDS011;164;50.784;6.496;2022-11-25T11:48:10;10.20;;;2.72;;
351;SDS011;164;50.784;6.496;2022-11-25T11:50:40;7.22;;;3.13;;
351;SDS011;164;50.784;6.496;2022-11-25T11:53:10;10.23;;;2.88;;
351;SDS011;164;50.784;6.496;2022-11-25T11:55:45;11.23;;;3.30;;
351;SDS011;164;50.784;6.496;2022-11-25T11:58:17;13.48;;;2.78;;
351;SDS011;164;50.784;6.496;2022-11-25T12:00:49;9.52;;;3.47;;
351;SDS011;164;50.784;6.496;2022-11-25T12:03:19;10.82;;;3.35;;
351;SDS011;164;50.784;6.496;2022-11-25T12:05:49;9.05;;;3.60;;
351;SDS011;164;50.784;6.496;2022-11-25T12:08:21;5.90;;;3.00;;
351;SDS011;164;50.784;6.496;2022-11-25T12:10:53;8.10;;;2.58;;
351;SDS011;164;50.784;6.496;2022-11-25T12:13:24;8.98;;;2.60;;
351;SDS011;164;50.784;6.496;2022-11-25T12:15:54;10.82;;;3.10;;
351;SDS011;164;50.784;6.496;2022-11-25T12:18:26;6.57;;;2.50;;
351;SDS011;164;50.784;6.496;2022-11-25T12:20:58;7.30;;;2.55;;
351;SDS011;164;50.784;6.496;2022-11-25T12:23:29;9.23;;;3.13;;
351;SDS011;164;50.784;6.496;2022-11-25T12:26:00;6.78;;;2.83;;
351;SDS011;164;50.784;6.496;2022-11-25T12:28:29;7.20;;;2.30;;
351;SDS011;164;50.784;6.496;2022-11-25T12:31:03;7.55;;;2.10;;
351;SDS011;164;50.784;6.496;2022-11-25T12:33:36;10.93;;;2.33;;
351;SDS011;164;50.784;6.496;2022-11-25T12:36:08;8.00;;;2.30;;
351;SDS011;164;50.784;6.496;2022-11-25T12:38:38;7.50;;;3.47;;
351;SDS011;164;50.784;6.496;2022-11-25T12:41:12;5.72;;;2.28;;
351;SDS011;164;50.784;6.496;2022-11-25T12:43:44;5.65;;;2.40;;
351;SDS011;164;50.784;6.496;2022-11-25T12:46:16;7.30;;;2.78;;
351;SDS011;164;50.784;6.496;2022-11-25T12:48:45;9.55;;;3.50;;
351;SDS011;164;50.784;6.496;2022-11-25T12:51:17;4.40;;;2.10;;
351;SDS011;164;50.784;6.496;2022-11-25T12:53:49;8.50;;;2.83;;
351;SDS011;164;50.784;6.496;2022-11-25T12:56:21;8.05;;;2.90;;
351;SDS011;164;50.784;6.496;2022-11-25T12:58:52;6.47;;;2.35;;
351;SDS011;164;50.784;6.496;2022-11-25T13:04:16;7.80;;;2.55;;
351;SDS011;164;50.784;6.496;2022-11-25T13:07:05;9.95;;;2.80;;
351;SDS011;164;50.784;6.496;2022-11-25T13:09:45;6.10;;;2.08;;
351;SDS011;164;50.784;6.496;2022-11-25T13:12:19;7.90;;;2.90;;
351;SDS011;164;50.784;6.496;2022-11-25T13:14:54;7.80;;;2.90;;
351;SDS011;164;50.784;6.496;2022-11-25T13:17:25;5.25;;;2.05;;
351;SDS011;164;50.784;6.496;2022-11-25T13:22:37;6.97;;;2.40;;
351;SDS011;164;50.784;6.496;2022-11-25T13:25:16;4.13;;;2.55;;
351;SDS011;164;50.784;6.496;2022-11-25T13:27:55;6.30;;;1.95;;
351;SDS011;164;50.784;6.496;2022-11-25T13:30:36;7.40;;;2.28;;
351;SDS011;164;50.784;6.496;2022-11-25T13:35:51;11.55;;;2.72;;
351;SDS011;164;50.784;6.496;2022-11-25T13:41:30;8.20;;;2.25;;
351;SDS011;164;50.784;6.496;2022-11-25T13:43:59;11.00;;;2.53;;
351;SDS011;164;50.784;6.496;2022-11-25T13:46:27;4.70;;;2.25;;
351;SDS011;164;50.784;6.496;2022-11-25T13:48:55;8.05;;;2.20;;
351;SDS011;164;50.784;6.496;2022-11-25T13:51:23;4.85;;;1.90;;
351;SDS011;164;50.784;6.496;2022-11-25T13:53:51;8.30;;;1.92;;
351;SDS011;164;50.784;6.496;2022-11-25T13:56:28;10.20;;;2.60;;
351;SDS011;164;50.784;6.496;2022-11-25T14:01:51;7.22;;;2.45;;
351;SDS011;164;50.784;6.496;2022-11-25T14:04:19;12.20;;;2.42;;
351;SDS011;164;50.784;6.496;2022-11-25T14:07:00;5.28;;;2.40;;
351;SDS011;164;50.784;6.496;2022-11-25T14:09:34;7.38;;;2.28;;
351;SDS011;164;50.784;6.496;2022-11-25T14:12:08;9.80;;;2.88;;
351;SDS011;164;50.784;6.496;2022-11-25T14:14:43;5.45;;;2.20;;
351;SDS011;164;50.784;6.496;2022-11-25T14:17:23;10.57;;;2.80;;
351;SDS011;164;50.784;6.496;2022-11-25T14:20:02;5.50;;;2.35;;
351;SDS011;164;50.784;6.496;2022-11-25T14:22:39;6.78;;;2.20;;
351;SDS011;164;50.784;6.496;2022-11-25T14:25:12;7.25;;;2.35;;
351;SDS011;164;50.784;6.496;2022-11-25T14:27:45;7.78;;;3.30;;
351;SDS011;164;50.784;6.496;2022-11-25T14:30:13;10.20;;;2.33;;
351;SDS011;164;50.784;6.496;2022-11-25T14:32:42;9.52;;;3.20;;
351;SDS011;164;50.784;6.496;2022-11-25T14:35:12;7.28;;;2.42;;
351;SDS011;164;50.784;6.496;2022-11-25T14:37:41;7.53;;;2.47;;
351;SDS011;164;50.784;6.496;2022-11-25T14:40:11;8.70;;;2.70;;
351;SDS011;164;50.784;6.496;2022-11-25T14:42:41;4.40;;;1.83;;
351;SDS011;164;50.784;6.496;2022-11-25T14:45:20;7.45;;;2.20;;
351;SDS011;164;50.784;6.496;2022-11-25T14:47:48;7.57;;;3.03;;
351;SDS011;164;50.784;6.496;2022-11-25T14:50:15;7.03;;;2.92;;
351;SDS011;164;50.784;6.496;2022-11-25T14:52:43;7.35;;;3.08;;
351;SDS011;164;50.784;6.496;2022-11-25T14:55:11;9.93;;;2.97;;
351;SDS011;164;50.784;6.496;2022-11-25T14:57:42;7.07;;;2.92;;
351;SDS011;164;50.784;6.496;2022-11-25T15:00:10;4.60;;;2.63;;
351;SDS011;164;50.784;6.496;2022-11-25T15:02:41;6.80;;;3.80;;
351;SDS011;164;50.784;6.496;2022-11-25T15:05:18;17.40;;;4.30;;
351;SDS011;164;50.784;6.496;2022-11-25T15:07:52;5.78;;;2.85;;
351;SDS011;164;50.784;6.496;2022-11-25T15:10:28;8.00;;;2.92;;
351;SDS011;164;50.784;6.496;2022-11-25T15:12:56;7.53;;;2.75;;
351;SDS011;164;50.784;6.496;2022-11-25T15:15:24;6.45;;;2.85;;
351;SDS011;164;50.784;6.496;2022-11-25T15:17:53;7.93;;;3.85;;
351;SDS011;164;50.784;6.496;2022-11-25T15:20:21;5.53;;;2.42;;
351;SDS011;164;50.784;6.496;2022-11-25T15:22:50;9.15;;;2.97;;
351;SDS011;164;50.784;6.496;2022-11-25T15:25:18;9.10;;;3.70;;
351;SDS011;164;50.784;6.496;2022-11-25T15:27:48;8.18;;;3.17;;
351;SDS011;164;50.784;6.496;2022-11-25T15:30:16;13.13;;;3.55;;
351;SDS011;164;50.784;6.496;2022-11-25T15:32:44;8.27;;;3.72;;
351;SDS011;164;50.784;6.496;2022-11-25T15:35:15;6.97;;;3.63;;
351;SDS011;164;50.784;6.496;2022-11-25T15:37:43;7.25;;;3.35;;
351;SDS011;164;50.784;6.496;2022-11-25T15:40:30;9.32;;;3.50;;
351;SDS011;164;50.784;6.496;2022-11-25T15:42:58;9.00;;;3.97;;
351;SDS011;164;50.784;6.496;2022-11-25T15:45:26;9.23;;;3.85;;
351;SDS011;164;50.784;6.496;2022-11-25T15:47:57;9.85;;;3.90;;
351;SDS011;164;50.784;6.496;2022-11-25T15:50:26;5.15;;;3.10;;
351;SDS011;164;50.784;6.496;2022-11-25T15:52:57;7.47;;;3.30;;
351;SDS011;164;50.784;6.496;2022-11-25T15:55:26;6.20;;;3.15;;
351;SDS011;164;50.784;6.496;2022-11-25T15:57:57;5.68;;;2.90;;
351;SDS011;164;50.784;6.496;2022-11-25T16:00:27;9.98;;;3.60;;
351;SDS011;164;50.784;6.496;2022-11-25T16:02:55;9.45;;;4.00;;
351;SDS011;164;50.784;6.496;2022-11-25T16:05:25;7.55;;;3.30;;
351;SDS011;164;50.784;6.496;2022-11-25T16:07:58;14.13;;;4.43;;
351;SDS011;164;50.784;6.496;2022-11-25T16:10:26;7.68;;;3.47;;
351;SDS011;164;50.784;6.496;2022-11-25T16:15:41;6.78;;;2.97;;
351;SDS011;164;50.784;6.496;2022-11-25T16:18:10;8.95;;;3.63;;